createdAt,value
2019-05-15T00:00:12.857Z,0.00
2019-05-15T00:01:12.768Z,0.00
2019-05-15T00:02:12.689Z,0.00
2019-05-15T00:03:12.609Z,0.00
2019-05-15T00:04:12.524Z,0.00
2019-05-15T00:05:12.444Z,0.00
2019-05-15T00:06:12.355Z,0.00
2019-05-15T00:07:12.270Z,0.00
2019-05-15T00:08:12.189Z,0.00
2019-05-15T00:09:12.103Z,0.00
2019-05-15T00:10:12.022Z,0.00
2019-05-15T00:11:11.938Z,0.00
2019-05-15T00:12:11.856Z,0.00
2019-05-15T00:13:11.777Z,0.00
2019-05-15T00:14:11.719Z,0.00
2019-05-15T00:15:11.606Z,0.00
2019-05-15T00:16:11.529Z,0.00
2019-05-15T00:17:11.437Z,0.00
2019-05-15T00:18:11.358Z,0.00
2019-05-15T00:19:11.271Z,0.00
2019-05-15T00:20:11.191Z,0.00
2019-05-15T00:21:11.105Z,0.00
2019-05-15T00:22:11.021Z,0.00
2019-05-15T00:23:10.937Z,0.00
2019-05-15T00:24:13.104Z,0.00
2019-05-15T00:25:10.772Z,0.00
2019-05-15T00:26:10.687Z,0.00
2019-05-15T00:27:10.603Z,0.00
2019-05-15T00:28:10.519Z,0.00
2019-05-15T00:29:15.766Z,0.00
2019-05-15T00:30:10.357Z,0.00
2019-05-15T00:31:10.272Z,0.00
2019-05-15T00:32:10.189Z,0.00
2019-05-15T00:33:10.099Z,0.00
2019-05-15T00:34:12.732Z,0.00
2019-05-15T00:35:09.933Z,0.00
2019-05-15T00:36:09.866Z,0.00
2019-05-15T00:37:09.764Z,0.00
2019-05-15T00:38:09.763Z,0.00
2019-05-15T00:39:09.601Z,0.00
2019-05-15T00:40:09.524Z,0.00
2019-05-15T00:41:09.728Z,0.00
2019-05-15T00:42:09.352Z,0.00
2019-05-15T00:43:09.273Z,0.00
2019-05-15T00:44:09.378Z,0.00
2019-05-15T00:45:09.637Z,0.00
2019-05-15T00:46:09.393Z,0.00
2019-05-15T00:47:10.443Z,0.00
2019-05-15T00:48:09.124Z,0.00
2019-05-15T00:49:08.851Z,0.00
2019-05-15T00:50:09.020Z,0.00
2019-05-15T00:51:08.617Z,0.00
2019-05-15T00:52:12.045Z,0.00
2019-05-15T00:53:08.683Z,0.00
2019-05-15T00:54:08.529Z,0.00
2019-05-15T00:55:08.734Z,0.00
2019-05-15T00:56:08.917Z,0.00
2019-05-15T00:57:08.592Z,0.00
2019-05-15T00:58:08.722Z,0.00
2019-05-15T00:59:08.335Z,0.00
2019-05-15T01:00:08.266Z,0.00
2019-05-15T01:01:08.312Z,0.00
2019-05-15T01:02:08.717Z,0.00
2019-05-15T01:03:08.709Z,0.00
2019-05-15T01:04:08.068Z,0.00
2019-05-15T01:05:08.078Z,0.00
2019-05-15T01:06:08.357Z,0.00
2019-05-15T01:07:08.301Z,0.00
2019-05-15T01:08:08.230Z,0.00
2019-05-15T01:09:08.333Z,0.00
2019-05-15T01:10:07.025Z,0.00
2019-05-15T01:11:09.153Z,0.00
2019-05-15T01:12:08.900Z,0.00
2019-05-15T01:13:08.336Z,0.00
2019-05-15T01:14:11.879Z,0.00
2019-05-15T01:15:08.989Z,0.00
2019-05-15T01:16:08.896Z,0.00
2019-05-15T01:17:08.873Z,0.00
2019-05-15T01:18:06.358Z,0.00
2019-05-15T01:19:06.270Z,0.00
2019-05-15T01:20:08.305Z,0.00
2019-05-15T01:21:08.195Z,0.00
2019-05-15T01:22:06.024Z,0.00
2019-05-15T01:23:08.594Z,0.00
2019-05-15T01:24:08.280Z,0.00
2019-05-15T01:25:05.771Z,0.00
2019-05-15T01:26:05.690Z,0.00
2019-05-15T01:27:05.613Z,0.00
2019-05-15T01:28:05.524Z,0.00
2019-05-15T01:29:05.439Z,0.00
2019-05-15T01:30:05.359Z,0.00
2019-05-15T01:31:05.271Z,0.00
2019-05-15T01:32:05.193Z,0.00
2019-05-15T01:33:05.107Z,0.00
2019-05-15T01:34:05.029Z,0.00
2019-05-15T01:35:04.941Z,0.00
2019-05-15T01:36:04.855Z,0.00
2019-05-15T01:37:04.774Z,0.00
2019-05-15T01:38:04.692Z,0.00
2019-05-15T01:39:04.617Z,0.00
2019-05-15T01:40:04.524Z,0.00
2019-05-15T01:41:04.440Z,0.00
2019-05-15T01:42:04.354Z,0.00
2019-05-15T01:43:04.276Z,0.00
2019-05-15T01:44:04.193Z,0.00
2019-05-15T01:45:04.106Z,0.00
2019-05-15T01:46:04.030Z,0.00
2019-05-15T01:47:03.940Z,0.00
2019-05-15T01:48:03.859Z,0.00
2019-05-15T01:49:03.774Z,0.00
2019-05-15T01:50:03.692Z,0.00
2019-05-15T01:51:03.610Z,0.00
2019-05-15T01:52:03.522Z,0.00
2019-05-15T01:53:03.441Z,0.00
2019-05-15T01:54:03.367Z,0.00
2019-05-15T01:55:03.278Z,0.00
2019-05-15T01:56:03.192Z,0.00
2019-05-15T01:57:03.122Z,0.00
2019-05-15T01:58:03.025Z,0.00
2019-05-15T01:59:02.939Z,0.00
2019-05-15T02:00:02.867Z,0.00
2019-05-15T02:01:02.775Z,0.00
2019-05-15T02:02:02.691Z,0.00
2019-05-15T02:03:02.611Z,0.00
2019-05-15T02:04:02.526Z,0.00
2019-05-15T02:05:02.455Z,0.00
2019-05-15T02:06:02.357Z,0.00
2019-05-15T02:07:02.275Z,0.00
2019-05-15T02:08:02.195Z,0.00
2019-05-15T02:09:02.113Z,0.00
2019-05-15T02:10:02.025Z,0.00
2019-05-15T02:11:01.935Z,0.00
2019-05-15T02:12:01.857Z,0.00
2019-05-15T02:13:01.774Z,0.00
2019-05-15T02:14:01.690Z,0.00
2019-05-15T02:15:01.625Z,0.00
2019-05-15T02:16:01.521Z,0.00
2019-05-15T02:17:01.437Z,0.00
2019-05-15T02:18:01.352Z,0.00
2019-05-15T02:19:01.270Z,0.00
2019-05-15T02:20:01.213Z,0.00
2019-05-15T02:21:01.107Z,0.00
2019-05-15T02:22:01.022Z,0.00
2019-05-15T02:23:00.941Z,0.00
2019-05-15T02:24:00.853Z,0.00
2019-05-15T02:25:00.782Z,0.00
2019-05-15T02:26:00.685Z,0.00
2019-05-15T02:27:00.600Z,0.00
2019-05-15T02:28:00.526Z,0.00
2019-05-15T02:29:00.431Z,0.00
2019-05-15T02:30:15.782Z,0.00
2019-05-15T02:31:00.273Z,0.00
2019-05-15T02:32:10.151Z,0.00
2019-05-15T02:34:04.477Z,0.00
2019-05-15T02:35:04.377Z,0.00
2019-05-15T02:37:09.069Z,0.00
2019-05-15T02:38:10.157Z,0.00
2019-05-15T02:40:12.971Z,0.00
2019-05-15T02:41:12.800Z,0.00
2019-05-15T02:43:09.615Z,0.00
2019-05-15T02:44:05.952Z,0.00
2019-05-15T02:45:05.874Z,0.00
2019-05-15T02:46:05.783Z,0.00
2019-05-15T02:47:05.717Z,0.00
2019-05-15T02:48:08.608Z,0.00
2019-05-15T02:49:08.535Z,0.00
2019-05-15T02:50:05.449Z,0.00
2019-05-15T02:51:05.366Z,0.00
2019-05-15T02:52:05.285Z,0.00
2019-05-15T02:53:05.197Z,0.00
2019-05-15T02:54:05.114Z,0.00
2019-05-15T02:55:05.032Z,0.00
2019-05-15T02:56:04.961Z,0.00
2019-05-15T02:57:04.865Z,0.00
2019-05-15T02:58:04.774Z,0.00
2019-05-15T02:59:04.699Z,0.00
2019-05-15T03:00:04.621Z,0.00
2019-05-15T03:01:04.528Z,0.00
2019-05-15T03:02:04.446Z,0.00
2019-05-15T03:03:04.362Z,0.00
2019-05-15T03:04:04.290Z,0.00
2019-05-15T03:05:04.212Z,0.00
2019-05-15T03:06:04.118Z,0.00
2019-05-15T03:07:04.035Z,0.00
2019-05-15T03:08:03.945Z,0.00
2019-05-15T03:09:03.865Z,0.00
2019-05-15T03:10:03.791Z,0.00
2019-05-15T03:11:03.697Z,0.00
2019-05-15T03:12:03.615Z,0.00
2019-05-15T03:13:03.526Z,0.00
2019-05-15T03:14:03.445Z,0.00
2019-05-15T03:15:03.355Z,0.00
2019-05-15T03:16:03.308Z,0.00
2019-05-15T03:17:03.192Z,0.00
2019-05-15T03:18:03.127Z,0.00
2019-05-15T03:19:03.026Z,0.00
2019-05-15T03:20:02.938Z,0.00
2019-05-15T03:21:02.859Z,0.00
2019-05-15T03:22:02.784Z,0.00
2019-05-15T03:23:02.688Z,0.00
2019-05-15T03:24:02.599Z,0.00
2019-05-15T03:25:02.523Z,0.00
2019-05-15T03:26:04.326Z,0.00
2019-05-15T03:27:02.357Z,0.00
2019-05-15T03:28:02.269Z,0.00
2019-05-15T03:29:02.185Z,0.00
2019-05-15T03:30:02.141Z,0.00
2019-05-15T03:31:22.573Z,5.63
2019-05-15T03:32:17.478Z,5.63
2019-05-15T03:33:09.994Z,5.63
2019-05-15T03:34:03.371Z,5.63
2019-05-15T03:35:04.856Z,5.63
2019-05-15T03:36:03.218Z,5.63
2019-05-15T03:37:03.345Z,5.63
2019-05-15T03:38:01.434Z,5.63
2019-05-15T03:39:01.358Z,11.25
2019-05-15T03:40:01.266Z,11.25
2019-05-15T03:41:01.184Z,11.25
2019-05-15T03:42:01.101Z,11.25
2019-05-15T03:43:01.022Z,11.25
2019-05-15T03:44:00.933Z,16.88
2019-05-15T03:45:00.855Z,16.88
2019-05-15T03:46:01.777Z,16.88
2019-05-15T03:47:00.675Z,16.88
2019-05-15T03:48:00.601Z,16.88
2019-05-15T03:49:00.705Z,22.50
2019-05-15T03:50:00.448Z,22.50
2019-05-15T03:51:00.350Z,22.50
2019-05-15T03:52:00.272Z,22.50
2019-05-15T03:53:00.174Z,22.50
2019-05-15T03:54:00.546Z,22.50
2019-05-15T03:55:00.007Z,28.13
2019-05-15T03:55:59.944Z,28.13
2019-05-15T03:56:59.860Z,28.13
2019-05-15T03:57:59.755Z,28.13
2019-05-15T03:58:59.920Z,28.13
2019-05-15T03:59:59.785Z,28.13
2019-05-15T04:01:00.092Z,28.13
2019-05-15T04:02:00.095Z,28.13
2019-05-15T04:02:59.354Z,28.13
2019-05-15T04:03:59.975Z,28.13
2019-05-15T04:05:01.639Z,28.13
2019-05-15T04:06:00.576Z,28.13
2019-05-15T04:06:59.792Z,28.13
2019-05-15T04:07:59.768Z,28.13
2019-05-15T04:08:58.850Z,28.13
2019-05-15T04:09:58.940Z,33.75
2019-05-15T04:10:59.694Z,33.75
2019-05-15T04:12:00.051Z,33.75
2019-05-15T04:12:59.988Z,33.75
2019-05-15T04:13:59.444Z,33.75
2019-05-15T04:14:59.592Z,33.75
2019-05-15T04:15:59.348Z,39.38
2019-05-15T04:16:59.474Z,39.38
2019-05-15T04:18:00.330Z,39.38
2019-05-15T04:18:59.334Z,39.38
2019-05-15T04:19:58.887Z,45.00
2019-05-15T04:21:00.230Z,45.00
2019-05-15T04:22:00.020Z,45.00
2019-05-15T04:23:00.365Z,50.63
2019-05-15T04:23:58.751Z,50.63
2019-05-15T04:24:59.247Z,50.63
2019-05-15T04:25:58.821Z,56.25
2019-05-15T04:26:59.885Z,56.25
2019-05-15T04:27:58.817Z,56.25
2019-05-15T04:29:00.151Z,61.88
2019-05-15T04:29:59.227Z,61.88
2019-05-15T04:30:59.591Z,61.88
2019-05-15T04:32:02.458Z,61.88
2019-05-15T04:32:59.407Z,67.50
2019-05-15T04:33:59.208Z,67.50
2019-05-15T04:34:59.311Z,67.50
2019-05-15T04:35:59.019Z,67.50
2019-05-15T04:36:58.658Z,73.13
2019-05-15T04:37:59.412Z,73.13
2019-05-15T04:38:58.638Z,73.13
2019-05-15T04:39:59.552Z,78.75
2019-05-15T04:40:58.879Z,78.75
2019-05-15T04:41:58.862Z,78.75
2019-05-15T04:42:59.013Z,84.38
2019-05-15T04:43:55.903Z,84.38
2019-05-15T04:44:55.822Z,84.38
2019-05-15T04:45:59.261Z,84.38
2019-05-15T04:46:59.212Z,84.38
2019-05-15T04:47:58.560Z,84.38
2019-05-15T04:48:55.484Z,84.38
2019-05-15T04:49:55.404Z,90.00
2019-05-15T04:50:55.323Z,90.00
2019-05-15T04:52:00.233Z,90.00
2019-05-15T04:52:55.153Z,90.00
2019-05-15T04:53:55.074Z,90.00
2019-05-15T04:54:54.986Z,95.63
2019-05-15T04:55:54.907Z,95.63
2019-05-15T04:56:54.816Z,101.25
2019-05-15T04:57:54.729Z,101.25
2019-05-15T04:58:54.661Z,106.88
2019-05-15T04:59:54.568Z,106.88
2019-05-15T05:00:54.486Z,112.50
2019-05-15T05:02:12.971Z,112.50
2019-05-15T05:02:54.316Z,112.50
2019-05-15T05:03:54.229Z,112.50
2019-05-15T05:04:54.149Z,118.13
2019-05-15T05:05:54.059Z,118.13
2019-05-15T05:06:53.972Z,118.13
2019-05-15T05:07:53.902Z,118.13
2019-05-15T05:08:53.817Z,118.13
2019-05-15T05:09:53.727Z,112.50
2019-05-15T05:10:53.645Z,118.13
2019-05-15T05:11:53.566Z,112.50
2019-05-15T05:12:53.482Z,112.50
2019-05-15T05:13:53.396Z,112.50
2019-05-15T05:14:53.309Z,112.50
2019-05-15T05:15:53.227Z,106.88
2019-05-15T05:16:53.148Z,106.88
2019-05-15T05:17:53.061Z,101.25
2019-05-15T05:18:52.978Z,106.88
2019-05-15T05:19:52.892Z,95.63
2019-05-15T05:20:52.806Z,95.63
2019-05-15T05:21:52.740Z,95.63
2019-05-15T05:22:52.639Z,95.63
2019-05-15T05:23:52.555Z,95.63
2019-05-15T05:24:52.477Z,95.63
2019-05-15T05:25:52.391Z,95.63
2019-05-15T05:26:52.307Z,101.25
2019-05-15T05:27:52.220Z,106.88
2019-05-15T05:28:52.136Z,112.50
2019-05-15T05:29:52.072Z,118.13
2019-05-15T05:30:51.970Z,123.75
2019-05-15T05:31:51.885Z,123.75
2019-05-15T05:32:51.807Z,129.38
2019-05-15T05:33:51.723Z,140.63
2019-05-15T05:34:51.641Z,140.63
2019-05-15T05:35:51.592Z,146.25
2019-05-15T05:36:51.472Z,146.25
2019-05-15T05:37:51.400Z,146.25
2019-05-15T05:38:51.317Z,146.25
2019-05-15T05:39:51.222Z,146.25
2019-05-15T05:40:51.130Z,140.63
2019-05-15T05:41:51.058Z,135.00
2019-05-15T05:42:50.975Z,135.00
2019-05-15T05:43:50.887Z,129.38
2019-05-15T05:44:50.804Z,129.38
2019-05-15T05:45:50.719Z,123.75
2019-05-15T05:46:50.648Z,123.75
2019-05-15T05:47:50.549Z,123.75
2019-05-15T05:48:50.466Z,123.75
2019-05-15T05:49:50.386Z,129.38
2019-05-15T05:50:50.433Z,129.38
2019-05-15T05:51:50.222Z,135.00
2019-05-15T05:52:50.136Z,135.00
2019-05-15T05:53:50.055Z,140.63
2019-05-15T05:54:49.991Z,140.63
2019-05-15T05:55:52.963Z,140.63
2019-05-15T05:56:49.823Z,146.25
2019-05-15T05:57:49.712Z,146.25
2019-05-15T05:58:49.637Z,146.25
2019-05-15T05:59:49.565Z,146.25
2019-05-15T06:00:49.482Z,157.50
2019-05-15T06:01:49.389Z,151.88
2019-05-15T06:02:52.205Z,157.50
2019-05-15T06:03:49.374Z,157.50
2019-05-15T06:04:49.135Z,168.75
2019-05-15T06:05:49.789Z,163.13
2019-05-15T06:07:06.158Z,168.75
2019-05-15T06:07:48.902Z,174.38
2019-05-15T06:08:48.803Z,174.38
2019-05-15T06:09:48.768Z,180.00
2019-05-15T06:10:49.475Z,180.00
2019-05-15T06:11:48.927Z,180.00
2019-05-15T06:12:49.054Z,180.00
2019-05-15T06:13:52.251Z,185.63
2019-05-15T06:14:48.573Z,191.25
2019-05-15T06:15:48.708Z,191.25
2019-05-15T06:16:48.351Z,196.88
2019-05-15T06:17:48.202Z,196.88
2019-05-15T06:18:49.215Z,202.50
2019-05-15T06:19:48.217Z,208.13
2019-05-15T06:20:49.341Z,213.75
2019-05-15T06:21:56.687Z,213.75
2019-05-15T06:22:47.979Z,213.75
2019-05-15T06:23:54.691Z,213.75
2019-05-15T06:24:48.549Z,213.75
2019-05-15T06:25:48.616Z,219.38
2019-05-15T06:26:48.192Z,219.38
2019-05-15T06:27:48.134Z,225.00
2019-05-15T06:28:49.016Z,225.00
2019-05-15T06:29:48.522Z,225.00
2019-05-15T06:30:48.616Z,225.00
2019-05-15T06:31:48.441Z,230.63
2019-05-15T06:33:03.826Z,230.63
2019-05-15T06:33:48.877Z,236.25
2019-05-15T06:34:48.467Z,236.25
2019-05-15T06:35:48.919Z,241.88
2019-05-15T06:36:48.511Z,241.88
2019-05-15T06:37:48.459Z,241.88
2019-05-15T06:38:48.427Z,247.50
2019-05-15T06:39:48.048Z,253.13
2019-05-15T06:40:48.479Z,253.13
2019-05-15T06:41:48.207Z,253.13
2019-05-15T06:42:48.243Z,253.13
2019-05-15T06:43:48.126Z,258.75
2019-05-15T06:44:48.219Z,258.75
2019-05-15T06:45:45.730Z,258.75
2019-05-15T06:46:48.166Z,264.38
2019-05-15T06:47:45.568Z,264.38
2019-05-15T06:48:45.484Z,270.00
2019-05-15T06:49:45.408Z,270.00
2019-05-15T06:50:45.320Z,270.00
2019-05-15T06:51:45.245Z,270.00
2019-05-15T06:52:45.158Z,270.00
2019-05-15T06:53:45.069Z,275.63
2019-05-15T06:54:45.000Z,281.25
2019-05-15T06:55:44.904Z,281.25
2019-05-15T06:56:44.826Z,281.25
2019-05-15T06:57:44.745Z,281.25
2019-05-15T06:58:44.662Z,281.25
2019-05-15T06:59:44.584Z,286.88
2019-05-15T07:00:44.499Z,286.88
2019-05-15T07:01:44.416Z,286.88
2019-05-15T07:02:44.356Z,292.50
2019-05-15T07:03:44.256Z,286.88
2019-05-15T07:04:44.165Z,292.50
2019-05-15T07:05:44.087Z,292.50
2019-05-15T07:06:44.013Z,292.50
2019-05-15T07:07:43.921Z,298.13
2019-05-15T07:08:43.836Z,292.50
2019-05-15T07:09:43.758Z,286.88
2019-05-15T07:10:43.668Z,286.88
2019-05-15T07:11:43.592Z,286.88
2019-05-15T07:12:43.506Z,281.25
2019-05-15T07:13:43.429Z,286.88
2019-05-15T07:14:43.352Z,286.88
2019-05-15T07:15:43.262Z,292.50
2019-05-15T07:16:43.177Z,292.50
2019-05-15T07:17:43.109Z,298.13
2019-05-15T07:18:43.018Z,303.75
2019-05-15T07:19:42.941Z,298.13
2019-05-15T07:20:42.865Z,303.75
2019-05-15T07:21:42.772Z,309.38
2019-05-15T07:22:42.703Z,320.63
2019-05-15T07:23:42.608Z,309.38
2019-05-15T07:24:42.528Z,309.38
2019-05-15T07:25:42.446Z,309.38
2019-05-15T07:26:42.363Z,303.75
2019-05-15T07:27:42.281Z,303.75
2019-05-15T07:28:42.199Z,303.75
2019-05-15T07:29:42.135Z,309.38
2019-05-15T07:30:42.033Z,320.63
2019-05-15T07:31:41.949Z,320.63
2019-05-15T07:32:41.878Z,326.25
2019-05-15T07:33:43.928Z,337.50
2019-05-15T07:34:41.705Z,343.13
2019-05-15T07:35:41.622Z,343.13
2019-05-15T07:36:41.562Z,343.13
2019-05-15T07:37:41.476Z,348.75
2019-05-15T07:38:41.376Z,354.38
2019-05-15T07:39:41.299Z,354.38
2019-05-15T07:40:41.219Z,354.38
2019-05-15T07:41:41.150Z,360.00
2019-05-15T07:42:41.052Z,360.00
2019-05-15T07:43:40.970Z,365.63
2019-05-15T07:44:40.901Z,371.25
2019-05-15T07:45:43.911Z,376.88
2019-05-15T07:46:40.720Z,388.13
2019-05-15T07:47:40.651Z,393.75
2019-05-15T07:48:43.810Z,399.38
2019-05-15T07:49:40.479Z,399.38
2019-05-15T07:50:40.399Z,399.38
2019-05-15T07:51:40.338Z,399.38
2019-05-15T07:52:40.232Z,405.00
2019-05-15T07:53:40.164Z,410.63
2019-05-15T07:54:40.079Z,416.25
2019-05-15T07:55:40.003Z,421.88
2019-05-15T07:56:39.913Z,421.88
2019-05-15T07:57:39.875Z,427.50
2019-05-15T07:58:39.772Z,421.88
2019-05-15T07:59:39.685Z,421.88
2019-05-15T08:00:39.720Z,421.88
2019-05-15T08:01:39.540Z,421.88
2019-05-15T08:02:39.424Z,416.25
2019-05-15T08:03:55.105Z,410.63
2019-05-15T08:04:39.259Z,405.00
2019-05-15T08:05:54.661Z,388.13
2019-05-15T08:06:39.106Z,376.88
2019-05-15T08:07:39.121Z,388.13
2019-05-15T08:08:39.506Z,416.25
2019-05-15T08:09:39.210Z,416.25
2019-05-15T08:10:39.712Z,410.63
2019-05-15T08:11:39.205Z,393.75
2019-05-15T08:12:39.266Z,399.38
2019-05-15T08:13:38.529Z,388.13
2019-05-15T08:14:38.941Z,382.50
2019-05-15T08:15:38.361Z,382.50
2019-05-15T08:16:39.440Z,399.38
2019-05-15T08:17:59.225Z,405.00
2019-05-15T08:18:39.428Z,416.25
2019-05-15T08:19:38.496Z,416.25
2019-05-15T08:20:38.493Z,410.63
2019-05-15T08:21:38.494Z,416.25
2019-05-15T08:22:38.390Z,405.00
2019-05-15T08:23:39.180Z,388.13
2019-05-15T08:24:39.089Z,360.00
2019-05-15T08:25:38.910Z,348.75
2019-05-15T08:26:37.925Z,337.50
2019-05-15T08:27:38.271Z,343.13
2019-05-15T08:28:38.266Z,348.75
2019-05-15T08:29:38.298Z,343.13
2019-05-15T08:30:38.711Z,360.00
2019-05-15T08:31:38.842Z,365.63
2019-05-15T08:34:15.891Z,393.75
2019-05-15T08:35:08.896Z,405.00
2019-05-15T08:37:13.210Z,405.00
2019-05-15T08:38:14.299Z,405.00
2019-05-15T08:39:13.031Z,405.00
2019-05-15T08:40:12.951Z,393.75
2019-05-15T08:41:15.500Z,410.63
2019-05-15T08:42:12.788Z,405.00
2019-05-15T08:43:12.707Z,427.50
2019-05-15T08:44:12.624Z,444.38
2019-05-15T08:45:12.546Z,438.75
2019-05-15T08:46:12.466Z,438.75
2019-05-15T08:47:12.384Z,433.13
2019-05-15T08:48:12.305Z,433.13
2019-05-15T08:49:12.226Z,393.75
2019-05-15T08:50:12.141Z,388.13
2019-05-15T08:51:12.060Z,405.00
2019-05-15T08:52:11.984Z,416.25
2019-05-15T08:53:11.897Z,354.38
2019-05-15T08:54:11.821Z,360.00
2019-05-15T08:55:11.743Z,354.38
2019-05-15T08:56:14.675Z,320.63
2019-05-15T08:57:11.577Z,326.25
2019-05-15T08:58:14.101Z,331.88
2019-05-15T08:59:11.418Z,343.13
2019-05-15T09:00:11.341Z,348.75
2019-05-15T09:01:11.260Z,371.25
2019-05-15T09:02:11.177Z,410.63
2019-05-15T09:03:11.099Z,450.00
2019-05-15T09:04:26.156Z,478.13
2019-05-15T09:05:10.934Z,500.63
2019-05-15T09:06:10.859Z,483.75
2019-05-15T09:07:10.782Z,489.38
2019-05-15T09:08:10.692Z,511.88
2019-05-15T09:09:10.619Z,506.25
2019-05-15T09:10:10.531Z,495.00
2019-05-15T09:11:10.469Z,483.75
2019-05-15T09:12:10.371Z,500.63
2019-05-15T09:13:10.290Z,495.00
2019-05-15T09:14:10.211Z,528.75
2019-05-15T09:15:10.132Z,551.25
2019-05-15T09:16:10.052Z,590.63
2019-05-15T09:17:09.970Z,596.25
2019-05-15T09:18:15.862Z,585.00
2019-05-15T09:19:09.811Z,596.25
2019-05-15T09:20:09.730Z,613.13
2019-05-15T09:21:09.653Z,613.13
2019-05-15T09:22:09.574Z,607.50
2019-05-15T09:23:09.495Z,607.50
2019-05-15T09:24:09.705Z,624.38
2019-05-15T09:25:09.329Z,635.63
2019-05-15T09:26:09.485Z,635.63
2019-05-15T09:27:10.221Z,635.63
2019-05-15T09:28:09.091Z,624.38
2019-05-15T09:29:09.413Z,601.88
2019-05-15T09:30:08.981Z,624.38
2019-05-15T09:31:08.850Z,646.88
2019-05-15T09:32:12.410Z,663.75
2019-05-15T09:33:08.887Z,675.00
2019-05-15T09:34:09.087Z,686.25
2019-05-15T09:35:08.572Z,703.13
2019-05-15T09:36:09.011Z,686.25
2019-05-15T09:37:08.636Z,652.50
2019-05-15T09:38:08.722Z,624.38
2019-05-15T09:39:08.706Z,613.13
2019-05-15T09:40:08.885Z,601.88
2019-05-15T09:41:08.931Z,585.00
2019-05-15T09:42:08.495Z,562.50
2019-05-15T09:43:11.056Z,545.63
2019-05-15T09:44:08.067Z,523.13
2019-05-15T09:45:08.875Z,523.13
2019-05-15T09:46:10.292Z,540.00
2019-05-15T09:47:09.197Z,556.88
2019-05-15T09:48:10.136Z,596.25
2019-05-15T09:49:08.879Z,624.38
2019-05-15T09:50:08.490Z,646.88
2019-05-15T09:51:09.280Z,635.63
2019-05-15T09:52:08.981Z,675.00
2019-05-15T09:53:09.273Z,669.38
2019-05-15T09:54:08.137Z,630.00
2019-05-15T09:55:08.551Z,680.63
2019-05-15T09:56:08.111Z,691.88
2019-05-15T09:57:10.151Z,686.25
2019-05-15T09:58:08.259Z,675.00
2019-05-15T09:59:08.830Z,697.50
2019-05-15T10:00:08.819Z,680.63
2019-05-15T10:01:08.412Z,618.75
2019-05-15T10:02:06.385Z,585.00
2019-05-15T10:03:06.309Z,568.13
2019-05-15T10:04:08.348Z,517.50
2019-05-15T10:05:10.619Z,489.38
2019-05-15T10:06:07.788Z,551.25
2019-05-15T10:07:08.084Z,618.75
2019-05-15T10:08:08.460Z,646.88
2019-05-15T10:09:08.860Z,658.13
2019-05-15T10:10:08.489Z,669.38
2019-05-15T10:11:05.674Z,675.00
2019-05-15T10:12:05.595Z,675.00
2019-05-15T10:13:05.519Z,658.13
2019-05-15T10:14:05.438Z,641.25
2019-05-15T10:15:05.366Z,635.63
2019-05-15T10:16:05.280Z,630.00
2019-05-15T10:17:05.203Z,624.38
2019-05-15T10:18:05.119Z,652.50
2019-05-15T10:19:05.040Z,663.75
2019-05-15T10:20:04.962Z,686.25
2019-05-15T10:21:04.878Z,725.63
2019-05-15T10:22:04.967Z,770.63
2019-05-15T10:23:04.725Z,793.13
2019-05-15T10:24:04.648Z,804.38
2019-05-15T10:25:04.572Z,815.63
2019-05-15T10:26:04.490Z,821.25
2019-05-15T10:27:04.407Z,810.00
2019-05-15T10:28:04.334Z,793.13
2019-05-15T10:29:04.248Z,787.50
2019-05-15T10:30:04.180Z,776.25
2019-05-15T10:31:04.092Z,787.50
2019-05-15T10:32:04.014Z,798.75
2019-05-15T10:33:03.932Z,793.13
2019-05-15T10:34:03.854Z,781.88
2019-05-15T10:35:03.778Z,781.88
2019-05-15T10:36:03.694Z,781.88
2019-05-15T10:37:03.619Z,770.63
2019-05-15T10:38:03.551Z,748.13
2019-05-15T10:39:03.508Z,680.63
2019-05-15T10:40:03.382Z,703.13
2019-05-15T10:41:09.635Z,703.13
2019-05-15T10:42:03.222Z,725.63
2019-05-15T10:43:03.144Z,759.38
2019-05-15T10:44:03.066Z,753.75
2019-05-15T10:45:02.986Z,753.75
2019-05-15T10:46:02.910Z,765.00
2019-05-15T10:47:02.828Z,804.38
2019-05-15T10:48:02.746Z,804.38
2019-05-15T10:49:02.670Z,821.25
2019-05-15T10:50:02.600Z,832.50
2019-05-15T10:51:07.110Z,826.88
2019-05-15T10:52:02.434Z,855.00
2019-05-15T10:53:02.365Z,900.00
2019-05-15T10:54:02.276Z,973.13
2019-05-15T10:55:02.195Z,1023.75
2019-05-15T10:56:02.708Z,1063.13
2019-05-15T10:57:05.144Z,1074.38
2019-05-15T10:58:01.985Z,1074.38
2019-05-15T10:59:01.882Z,1074.38
2019-05-15T11:00:01.805Z,1029.38
2019-05-15T11:01:03.156Z,1012.50
2019-05-15T11:02:01.650Z,1012.50
2019-05-15T11:03:01.569Z,1046.25
2019-05-15T11:04:01.491Z,1113.75
2019-05-15T11:05:01.415Z,1091.25
2019-05-15T11:06:01.344Z,1029.38
2019-05-15T11:07:01.255Z,978.75
2019-05-15T11:08:01.179Z,894.38
2019-05-15T11:09:01.103Z,759.38
2019-05-15T11:10:01.025Z,708.75
2019-05-15T11:11:00.949Z,691.88
2019-05-15T11:12:00.871Z,714.38
2019-05-15T11:13:00.790Z,731.25
2019-05-15T11:14:00.711Z,787.50
2019-05-15T11:15:00.639Z,815.63
2019-05-15T11:16:00.559Z,871.88
2019-05-15T11:17:00.483Z,894.38
2019-05-15T11:18:00.418Z,871.88
2019-05-15T11:19:00.344Z,843.75
2019-05-15T11:20:00.249Z,838.13
2019-05-15T11:21:00.169Z,787.50
2019-05-15T11:22:00.089Z,781.88
2019-05-15T11:23:00.015Z,781.88
2019-05-15T11:23:59.937Z,815.63
2019-05-15T11:24:59.856Z,826.88
2019-05-15T11:25:59.778Z,905.63
2019-05-15T11:26:59.702Z,911.25
2019-05-15T11:27:59.626Z,990.00
2019-05-15T11:28:59.557Z,1096.88
2019-05-15T11:29:59.471Z,1186.88
2019-05-15T11:30:59.649Z,1265.63
2019-05-15T11:31:59.313Z,1321.88
2019-05-15T11:32:59.236Z,1417.50
2019-05-15T11:33:59.266Z,1248.75
2019-05-15T11:34:59.087Z,1186.88
2019-05-15T11:36:05.421Z,1096.88
2019-05-15T11:36:59.451Z,1108.13
2019-05-15T11:37:58.849Z,1147.50
2019-05-15T11:38:58.771Z,1119.38
2019-05-15T11:39:59.090Z,990.00
2019-05-15T11:40:58.616Z,860.63
2019-05-15T11:41:58.540Z,793.13
2019-05-15T11:42:58.467Z,753.75
2019-05-15T11:43:58.388Z,770.63
2019-05-15T11:44:58.583Z,781.88
2019-05-15T11:45:58.845Z,804.38
2019-05-15T11:46:58.627Z,843.75
2019-05-15T11:48:00.835Z,990.00
2019-05-15T11:48:58.801Z,1158.75
2019-05-15T11:49:58.467Z,1192.50
2019-05-15T11:50:57.854Z,1299.38
2019-05-15T11:52:00.545Z,1215.00
2019-05-15T11:52:58.583Z,1063.13
2019-05-15T11:53:58.772Z,900.00
2019-05-15T11:54:58.926Z,731.25
2019-05-15T11:55:59.653Z,686.25
2019-05-15T11:56:59.628Z,680.63
2019-05-15T11:57:59.400Z,748.13
2019-05-15T11:58:57.230Z,776.25
2019-05-15T11:59:59.647Z,787.50
2019-05-15T12:00:57.938Z,725.63
2019-05-15T12:01:58.057Z,663.75
2019-05-15T12:02:58.445Z,641.25
2019-05-15T12:03:58.525Z,618.75
2019-05-15T12:04:58.391Z,579.38
2019-05-15T12:05:59.785Z,573.75
2019-05-15T12:06:59.635Z,523.13
2019-05-15T12:07:57.894Z,506.25
2019-05-15T12:08:58.812Z,511.88
2019-05-15T12:09:58.038Z,506.25
2019-05-15T12:10:59.153Z,495.00
2019-05-15T12:11:56.228Z,472.50
2019-05-15T12:12:56.150Z,466.88
2019-05-15T12:13:56.069Z,506.25
2019-05-15T12:14:55.993Z,562.50
2019-05-15T12:15:55.913Z,613.13
2019-05-15T12:17:07.261Z,613.13
2019-05-15T12:17:55.753Z,596.25
2019-05-15T12:18:55.678Z,607.50
2019-05-15T12:20:01.366Z,630.00
2019-05-15T12:20:55.526Z,641.25
2019-05-15T12:21:55.443Z,618.75
2019-05-15T12:22:55.370Z,624.38
2019-05-15T12:23:55.287Z,652.50
2019-05-15T12:24:55.213Z,686.25
2019-05-15T12:25:55.130Z,720.00
2019-05-15T12:26:55.051Z,720.00
2019-05-15T12:27:54.973Z,646.88
2019-05-15T12:28:54.896Z,630.00
2019-05-15T12:29:54.816Z,669.38
2019-05-15T12:30:54.740Z,669.38
2019-05-15T12:31:54.661Z,635.63
2019-05-15T12:32:54.584Z,596.25
2019-05-15T12:33:54.502Z,506.25
2019-05-15T12:34:54.425Z,427.50
2019-05-15T12:35:54.347Z,393.75
2019-05-15T12:36:57.929Z,230.63
2019-05-15T12:37:54.188Z,421.88
2019-05-15T12:38:54.111Z,444.38
2019-05-15T12:59:52.460Z,590.63
2019-05-15T13:00:52.382Z,551.25
2019-05-15T13:01:52.307Z,500.63
2019-05-15T13:02:52.221Z,478.13
2019-05-15T13:03:52.144Z,461.25
2019-05-15T13:04:52.064Z,450.00
2019-05-15T13:05:52.031Z,466.88
2019-05-15T13:07:11.865Z,461.25
2019-05-15T13:07:51.826Z,500.63
2019-05-15T13:08:51.753Z,511.88